createdAt,value
2022-10-05T00:01:56.597Z,9.6
2022-10-05T00:32:03.458Z,9.8
2022-10-05T00:42:05.516Z,10.1
2022-10-05T00:52:08.099Z,10.2
2022-10-05T01:02:10.175Z,10.3
2022-10-05T01:12:12.362Z,10.3
2022-10-05T01:22:14.683Z,10.3
2022-10-05T01:32:17.184Z,10.3
2022-10-05T01:42:19.413Z,10.3
2022-10-05T01:52:21.418Z,10.4
2022-10-05T02:02:23.607Z,10.5
2022-10-05T02:22:28.776Z,10.7
2022-10-05T02:32:30.519Z,10.7
2022-10-05T02:42:33.210Z,10.8
2022-10-05T02:52:35.362Z,11.1
2022-10-05T03:02:37.028Z,11.2
2022-10-05T03:12:38.992Z,11.3
2022-10-05T03:32:43.008Z,11.4
2022-10-05T03:42:45.177Z,11.4
2022-10-05T03:52:47.325Z,11.6
2022-10-05T04:02:49.150Z,11.5
2022-10-05T04:12:50.926Z,11.4
2022-10-05T04:22:52.575Z,11.2
2022-10-05T04:32:55.146Z,11.3
2022-10-05T04:42:57.690Z,11.4
2022-10-05T04:53:00.335Z,11.6
2022-10-05T05:13:04.795Z,12.2
2022-10-05T05:23:06.589Z,12.4
2022-10-05T05:33:09.087Z,12.5
2022-10-05T05:43:11.588Z,12.6
2022-10-05T05:53:13.609Z,12.6
2022-10-05T06:03:16.346Z,12.8
2022-10-05T06:13:18.403Z,12.9
2022-10-05T06:23:20.484Z,13
2022-10-05T06:33:22.743Z,13.2
2022-10-05T06:43:24.533Z,13.3
2022-10-05T06:53:27.162Z,13.5
2022-10-05T07:03:29.036Z,13.7
2022-10-05T07:13:31.224Z,13.9
2022-10-05T07:23:33.131Z,14.1
2022-10-05T07:33:35.000Z,14.2
2022-10-05T08:03:40.943Z,14.4
2022-10-05T08:13:43.308Z,14.6
2022-10-05T08:23:45.414Z,14.7
2022-10-05T08:33:47.575Z,14.8
2022-10-05T08:43:49.575Z,15
2022-10-05T08:53:51.712Z,15.2
2022-10-05T09:03:54.245Z,15.3
2022-10-05T09:23:59.122Z,15.7
2022-10-05T09:34:00.864Z,15.8
2022-10-05T09:44:03.395Z,16
2022-10-05T09:54:05.877Z,16.1
2022-10-05T10:04:07.726Z,16.3
2022-10-05T10:14:10.007Z,16.5
2022-10-05T10:24:12.386Z,16.6
2022-10-05T10:34:14.232Z,16.8
2022-10-05T10:44:16.780Z,16.7
2022-10-05T10:54:19.230Z,16.8
2022-10-05T11:04:21.263Z,16.9
2022-10-05T11:14:23.211Z,16.9
2022-10-05T11:24:25.379Z,17.1
2022-10-05T11:34:27.436Z,17.1
2022-10-05T11:44:29.939Z,17.4
2022-10-05T11:54:35.126Z,18
2022-10-05T12:04:33.869Z,17.9
2022-10-05T12:14:36.329Z,18.4
2022-10-05T12:24:38.579Z,18.4
2022-10-05T12:34:40.283Z,18.6
2022-10-05T12:44:42.835Z,18.7
2022-10-05T12:54:44.852Z,18.9
2022-10-05T13:04:53.372Z,19.3
2022-10-05T13:24:58.081Z,19.7
2022-10-05T13:35:00.064Z,19.8
2022-10-05T14:05:05.699Z,20.6
2022-10-05T14:35:12.488Z,21.1
2022-10-05T14:45:14.853Z,21.3
2022-10-05T15:05:19.241Z,21.2
2022-10-05T15:15:21.551Z,21.1
2022-10-05T15:25:23.786Z,20.9
2022-10-05T16:05:32.458Z,19.3
2022-10-05T16:15:34.850Z,19.1
2022-10-05T16:35:39.528Z,18.8
2022-10-05T17:15:48.074Z,19
2022-10-05T17:25:49.957Z,18.9
2022-10-05T17:35:51.671Z,18.3
2022-10-05T17:45:54.195Z,18.2
2022-10-05T17:55:56.680Z,18.1
2022-10-05T18:05:58.675Z,18
2022-10-05T18:16:00.564Z,17.8
2022-10-05T18:26:02.330Z,17.7
2022-10-05T18:36:04.710Z,17.7
2022-10-05T18:46:07.336Z,17.7
2022-10-05T18:56:09.729Z,17.6
2022-10-05T19:06:13.111Z,17.7
2022-10-05T19:16:13.343Z,17.7
2022-10-05T19:26:15.337Z,17.7
2022-10-05T19:36:17.603Z,17.7
2022-10-05T19:46:20.238Z,17.8
2022-10-05T19:56:21.912Z,17.8
2022-10-05T20:06:23.858Z,17.9
2022-10-05T20:16:26.350Z,17.9
2022-10-05T20:26:27.833Z,17.9
2022-10-05T20:36:30.485Z,17.8
2022-10-05T20:46:32.559Z,17.8
2022-10-05T20:56:34.218Z,17.9
2022-10-05T21:06:36.106Z,17.9
2022-10-05T21:16:38.703Z,17.9
2022-10-05T21:26:40.777Z,17.9
2022-10-05T21:36:42.715Z,17.9
2022-10-05T21:46:44.407Z,17.9
2022-10-05T21:56:46.163Z,17.8
2022-10-05T22:06:48.046Z,17.8
2022-10-05T22:16:49.854Z,17.7
2022-10-05T22:26:51.722Z,17.6
2022-10-05T22:36:53.835Z,17.1
2022-10-05T22:46:56.341Z,16.7
2022-10-05T22:56:58.692Z,16.6
2022-10-05T23:17:02.977Z,15.3
2022-10-05T23:37:07.608Z,13.1
2022-10-05T23:47:10.227Z,13
2022-10-05T23:57:12.597Z,13.1
